METAR AND TAF INFORMATION
METAR FOR UCFM
ADDS - METARS form results

(0410 UTC 26 August 2019)
Data provider http://aviationweather.gov/metar/data/
 
METAR text: UCFM 260400Z VRB01MPS CAVOK 26/06 Q1011 R08/0///95 NOSIG
Conditions at: UCFM (MANAS , KG) observed 0400 UTC 26 August 2019
Temperature: 26.0°C (79°F)
Dewpoint: 6.0°C (43°F) [RH = 28%]
Pressure (altimeter): 29.85 inches Hg (1011.0 mb)
Winds: variable direction winds at 2 MPH (2 knots; 1.0 m/s)
Visibility: 6 or more miles (10+ km)
Ceiling: ceiling and visibility are OK
Clouds: unknown
Weather: no significant weather observed at this time

METAR text: UCFM 260330Z VRB01MPS CAVOK 25/06 Q1011 R08/0///95 NOSIG
Conditions at: UCFM (MANAS , KG) observed 0330 UTC 26 August 2019
Temperature: 25.0°C (77°F)
Dewpoint: 6.0°C (43°F) [RH = 30%]
Pressure (altimeter): 29.85 inches Hg (1011.0 mb)
Winds: variable direction winds at 2 MPH (2 knots; 1.0 m/s)
Visibility: 6 or more miles (10+ km)
Ceiling: ceiling and visibility are OK
Clouds: unknown
Weather: no significant weather observed at this time

Forecast for: UCFM (MANAS , KG)
Text: TAF UCFM 252240Z 2600/2624 12003G08MPS CAVOK
Forecast period: 0000 to 0400 UTC 26 August 2019
Forecast type: FROM: standard forecast or significant change
Winds: from the ESE (120 degrees) at 7 MPH (6 knots; 3.1 m/s)
gusting to 18 MPH (16 knots; 8.2 m/s)
Visibility: 6 or more miles 10+ km)
Ceiling: unknown
Clouds: missing
Weather: NSW  (no significant weather)
Text: BECMG 2604/2606 32003G08MPS
Forecast period: 0400 UTC 26 August 2019 to 0000 UTC 27 August 2019
Forecast type: BECOMING: Conditions expected to become as follows by 0600 UTC 26 August 2019
Winds: from the NW (320 degrees) at 7 MPH (6 knots; 3.1 m/s)
gusting to 18 MPH (16 knots; 8.2 m/s)
Visibility: 6 or more miles 10+ km)
Ceiling: unknown
Clouds: missing
Weather: NSW  (no significant weather)

 AIRPORT MAP

 RUNWAY INFORMATION

 AIRPORT FREQUENCIES

 AIRPORT NEAR NAVIGATION AIDS



2018 Air Astana Virtual Airline